createdAt,value
2022-11-14T00:01:12.722Z,2.50
2022-11-14T00:03:39.603Z,2.50
2022-11-14T00:06:07.756Z,2.60
2022-11-14T00:08:35.579Z,2.70
2022-11-14T00:11:02.830Z,2.70
2022-11-14T00:13:29.689Z,2.60
2022-11-14T00:15:56.834Z,2.60
2022-11-14T00:18:24.190Z,2.60
2022-11-14T00:20:52.898Z,2.50
2022-11-14T00:23:21.198Z,2.50
2022-11-14T00:25:48.514Z,2.50
2022-11-14T00:28:15.605Z,2.50
2022-11-14T00:30:45.919Z,2.50
2022-11-14T00:33:18.737Z,2.60
2022-11-14T00:35:51.724Z,2.60
2022-11-14T00:38:18.624Z,2.50
2022-11-14T00:40:45.486Z,2.50
2022-11-14T00:43:12.447Z,2.60
2022-11-14T00:45:39.481Z,2.60
2022-11-14T00:48:06.527Z,2.70
2022-11-14T00:50:33.501Z,2.70
2022-11-14T00:53:00.426Z,2.60
2022-11-14T00:55:27.305Z,2.60
2022-11-14T00:57:54.146Z,2.60
2022-11-14T01:00:21.085Z,2.50
2022-11-14T01:02:47.961Z,2.50
2022-11-14T01:05:15.012Z,2.60
2022-11-14T01:07:41.850Z,2.40
2022-11-14T01:10:09.586Z,2.40
2022-11-14T01:12:36.718Z,2.30
2022-11-14T01:15:03.775Z,2.50
2022-11-14T01:17:31.073Z,2.50
2022-11-14T01:19:57.933Z,2.40
2022-11-14T01:22:24.869Z,2.30
2022-11-14T01:24:51.863Z,2.20
2022-11-14T01:27:18.803Z,2.10
2022-11-14T01:29:45.790Z,2.10
2022-11-14T01:32:12.693Z,2.20
2022-11-14T01:34:39.537Z,2.10
2022-11-14T01:37:06.424Z,2.20
2022-11-14T01:39:33.631Z,2.10
2022-11-14T01:42:00.444Z,2.20
2022-11-14T01:44:48.204Z,2.10
2022-11-14T01:47:22.847Z,2.20
2022-11-14T01:49:55.213Z,2.10
2022-11-14T01:52:24.384Z,2.00
2022-11-14T01:54:55.297Z,2.00
2022-11-14T01:57:28.441Z,2.00
2022-11-14T01:59:59.275Z,2.00
2022-11-14T02:02:26.422Z,1.90
2022-11-14T02:05:02.930Z,2.00
2022-11-14T02:07:33.848Z,2.00
2022-11-14T02:10:09.574Z,2.00
2022-11-14T02:12:37.609Z,1.90
2022-11-14T02:15:04.916Z,1.90
2022-11-14T02:17:33.032Z,1.90
2022-11-14T02:20:12.354Z,1.90
2022-11-14T02:22:41.303Z,2.00
2022-11-14T02:25:10.388Z,1.90
2022-11-14T02:27:39.638Z,1.90
2022-11-14T02:30:12.667Z,2.00
2022-11-14T02:33:08.872Z,1.90
2022-11-14T02:35:26.859Z,1.80
2022-11-14T02:37:53.739Z,2.00
2022-11-14T02:40:20.727Z,1.90
2022-11-14T02:42:47.611Z,1.90
2022-11-14T02:45:14.746Z,1.80
2022-11-14T02:47:41.583Z,1.70
2022-11-14T02:50:08.843Z,1.50
2022-11-14T02:52:35.687Z,1.50
2022-11-14T02:55:03.453Z,1.60
2022-11-14T02:57:30.399Z,1.60
2022-11-14T02:59:57.287Z,1.60
2022-11-14T03:02:24.222Z,1.50
2022-11-14T03:04:50.998Z,1.50
2022-11-14T03:07:18.106Z,1.40
2022-11-14T03:09:45.044Z,1.40
2022-11-14T03:12:12.058Z,1.40
2022-11-14T03:14:39.668Z,1.40
2022-11-14T03:17:06.565Z,1.30
2022-11-14T03:19:33.379Z,1.40
2022-11-14T03:22:00.321Z,1.50
2022-11-14T03:24:27.370Z,1.50
2022-11-14T03:26:54.347Z,1.40
2022-11-14T03:29:21.320Z,1.40
2022-11-14T03:31:48.211Z,1.30
2022-11-14T03:34:15.167Z,1.30
2022-11-14T03:36:42.028Z,1.40
2022-11-14T03:39:09.293Z,1.30
2022-11-14T03:41:36.230Z,1.40
2022-11-14T03:44:03.244Z,1.30
2022-11-14T03:46:30.137Z,1.20
2022-11-14T03:48:57.088Z,1.20
2022-11-14T03:51:24.053Z,1.20
2022-11-14T03:53:51.079Z,1.20
2022-11-14T03:56:18.066Z,1.20
2022-11-14T03:58:44.924Z,1.10
2022-11-14T04:01:11.960Z,1.30
2022-11-14T04:03:38.946Z,1.30
2022-11-14T04:06:06.099Z,1.40
2022-11-14T04:08:33.473Z,1.40
2022-11-14T04:11:00.517Z,1.40
2022-11-14T04:13:27.557Z,1.20
2022-11-14T04:15:56.294Z,1.30
2022-11-14T04:18:24.004Z,1.40
2022-11-14T04:20:51.418Z,1.30
2022-11-14T04:23:19.122Z,1.30
2022-11-14T04:25:46.808Z,1.30
2022-11-14T04:28:14.286Z,1.30
2022-11-14T04:30:41.563Z,1.20
2022-11-14T04:33:08.609Z,1.20
2022-11-14T04:35:35.549Z,1.30
2022-11-14T04:38:02.898Z,1.30
2022-11-14T04:40:30.049Z,1.20
2022-11-14T04:42:58.019Z,1.20
2022-11-14T04:45:25.116Z,1.30
2022-11-14T04:47:52.021Z,1.20
2022-11-14T04:50:19.345Z,1.10
2022-11-14T04:52:46.353Z,1.20
2022-11-14T04:55:13.230Z,1.20
2022-11-14T04:57:40.223Z,1.20
2022-11-14T05:00:08.035Z,1.20
2022-11-14T05:02:35.106Z,1.20
2022-11-14T05:05:02.489Z,1.20
2022-11-14T05:07:29.535Z,1.20
2022-11-14T05:09:56.435Z,1.20
2022-11-14T05:12:23.429Z,1.20
2022-11-14T05:14:50.417Z,1.30
2022-11-14T05:17:17.713Z,1.30
2022-11-14T05:19:44.666Z,1.20
2022-11-14T05:22:11.649Z,1.20
2022-11-14T05:24:38.625Z,1.30
2022-11-14T05:27:05.777Z,1.30
2022-11-14T05:29:32.963Z,1.20
2022-11-14T05:32:01.193Z,1.20
2022-11-14T05:34:28.725Z,1.10
2022-11-14T05:36:55.894Z,1.20
2022-11-14T05:39:23.100Z,1.20
2022-11-14T05:41:50.361Z,1.20
2022-11-14T05:44:17.262Z,1.20
2022-11-14T05:46:44.733Z,1.20
2022-11-14T05:49:11.915Z,1.10
2022-11-14T05:51:47.249Z,1.20
2022-11-14T05:54:19.637Z,1.20
2022-11-14T05:56:47.706Z,1.20
2022-11-14T06:02:05.863Z,1.10
2022-11-14T06:08:27.474Z,1.20
2022-11-14T06:14:00.125Z,1.20
2022-11-14T06:16:27.918Z,1.30
2022-11-14T06:18:59.376Z,1.30
2022-11-14T06:21:27.174Z,1.30
2022-11-14T06:23:54.824Z,1.30
2022-11-14T06:26:27.389Z,1.30
2022-11-14T06:28:55.110Z,1.30
2022-11-14T06:31:24.613Z,1.40
2022-11-14T06:33:53.032Z,1.40
2022-11-14T06:36:20.539Z,1.30
2022-11-14T06:41:46.378Z,1.30
2022-11-14T06:44:30.713Z,1.40
2022-11-14T06:47:00.037Z,1.40
2022-11-14T06:49:36.578Z,1.30
2022-11-14T06:52:48.590Z,1.50
2022-11-14T06:55:30.201Z,1.40
2022-11-14T06:58:01.762Z,1.50
2022-11-14T07:44:21.053Z,1.70
2022-11-14T07:51:24.616Z,1.80
2022-11-14T08:04:23.033Z,1.70
2022-11-14T08:09:54.251Z,1.80
2022-11-14T08:26:40.083Z,2.00
2022-11-14T08:29:07.622Z,2.20
2022-11-14T08:31:45.590Z,2.20
2022-11-14T08:37:10.294Z,2.40
2022-11-14T08:39:40.698Z,2.40
2022-11-14T08:42:43.870Z,2.50
2022-11-14T08:45:22.574Z,2.50
2022-11-14T08:47:57.406Z,2.40
2022-11-14T08:50:38.272Z,2.50
2022-11-14T09:08:04.380Z,2.40
2022-11-14T09:15:43.006Z,2.30
2022-11-14T09:18:17.443Z,2.20
2022-11-14T09:20:56.311Z,3.50
2022-11-14T09:26:12.962Z,2.50
2022-11-14T09:29:33.215Z,2.80
2022-11-14T09:32:04.635Z,2.60
2022-11-14T09:34:50.480Z,2.80
2022-11-14T09:37:20.826Z,2.80
2022-11-14T09:42:17.507Z,3.40
2022-11-14T09:44:59.375Z,2.00
2022-11-14T09:47:34.564Z,1.80
2022-11-14T09:53:52.719Z,3.40
2022-11-14T09:56:48.188Z,5.50
2022-11-14T10:09:16.978Z,3.70
2022-11-14T10:12:15.513Z,3.50
2022-11-14T10:15:35.691Z,3.60
2022-11-14T10:22:46.345Z,2.60
2022-11-14T10:31:47.086Z,3.50
2022-11-14T10:35:13.630Z,3.50
2022-11-14T10:41:54.909Z,4.40
2022-11-14T10:44:47.758Z,3.80
2022-11-14T10:47:19.254Z,3.90
2022-11-14T10:50:25.234Z,3.70
2022-11-14T10:53:27.570Z,3.80
2022-11-14T11:27:57.932Z,3.60
2022-11-14T11:31:07.132Z,3.60
2022-11-14T11:34:06.915Z,3.30
2022-11-14T11:36:41.065Z,3.30
2022-11-14T11:39:19.903Z,3.20
2022-11-14T11:44:43.660Z,3.60
2022-11-14T11:47:16.731Z,3.60
2022-11-14T11:54:56.629Z,5.10
2022-11-14T11:57:55.873Z,3.30
2022-11-14T12:00:46.297Z,4.90
2022-11-14T12:06:29.388Z,3.40
2022-11-14T12:09:55.670Z,3.20
2022-11-14T12:12:46.231Z,3.20
2022-11-14T12:15:37.082Z,3.30
2022-11-14T12:18:48.528Z,3.20
2022-11-14T12:22:05.541Z,3.00
2022-11-14T12:28:10.367Z,3.00
2022-11-14T12:30:53.468Z,3.50
2022-11-14T12:33:48.198Z,3.10
2022-11-14T12:36:17.635Z,3.60
2022-11-14T12:39:03.166Z,3.60
2022-11-14T12:41:36.305Z,3.70
2022-11-14T12:44:29.218Z,3.70
2022-11-14T12:47:05.719Z,3.70
2022-11-14T12:49:52.716Z,3.70
2022-11-14T12:52:43.948Z,3.70
2022-11-14T12:55:25.963Z,3.70
2022-11-14T12:58:10.054Z,3.60
2022-11-14T13:01:00.023Z,3.50
2022-11-14T13:04:10.143Z,3.40
2022-11-14T13:06:53.692Z,3.50
2022-11-14T13:09:59.203Z,3.50
2022-11-14T13:12:52.710Z,3.40
2022-11-14T13:16:38.218Z,3.40
2022-11-14T13:19:29.972Z,3.40
2022-11-14T13:22:13.321Z,3.30
2022-11-14T13:24:59.024Z,4.60
2022-11-14T13:28:00.026Z,3.20
2022-11-14T13:30:17.714Z,3.20
2022-11-14T13:32:45.404Z,3.20
2022-11-14T13:35:39.262Z,3.30
2022-11-14T13:38:34.298Z,3.20
2022-11-14T13:41:25.936Z,3.30
2022-11-14T13:44:25.982Z,3.20
2022-11-14T13:47:25.475Z,3.30
2022-11-14T13:50:19.148Z,3.30
2022-11-14T13:52:48.818Z,3.40
2022-11-14T13:55:45.879Z,3.30
2022-11-14T13:58:32.082Z,3.20
2022-11-14T14:01:16.593Z,3.20
2022-11-14T14:03:52.941Z,3.20
2022-11-14T14:06:43.876Z,3.30
2022-11-14T14:09:28.640Z,3.20
2022-11-14T14:12:26.622Z,3.20
2022-11-14T14:15:15.577Z,3.10
2022-11-14T14:18:02.917Z,3.10
2022-11-14T14:20:34.689Z,3.10
2022-11-14T14:23:39.749Z,3.00
2022-11-14T14:26:32.570Z,3.10
2022-11-14T14:29:18.937Z,3.10
2022-11-14T14:31:46.314Z,3.30
2022-11-14T14:34:42.055Z,3.20
2022-11-14T14:37:19.246Z,3.20
2022-11-14T14:40:02.858Z,3.30
2022-11-14T14:42:45.556Z,3.20
2022-11-14T14:45:18.988Z,3.30
2022-11-14T14:47:51.563Z,3.30
2022-11-14T14:50:33.440Z,3.30
2022-11-14T14:53:02.329Z,3.40
2022-11-14T14:55:35.174Z,3.30
2022-11-14T14:58:23.146Z,3.30
2022-11-14T15:01:02.899Z,3.40
2022-11-14T15:03:37.888Z,3.30
2022-11-14T15:06:18.583Z,3.40
2022-11-14T15:08:46.609Z,3.30
2022-11-14T15:11:15.022Z,3.40
2022-11-14T15:13:43.240Z,3.40
2022-11-14T15:16:11.500Z,3.40
2022-11-14T15:18:39.110Z,3.40
2022-11-14T15:21:18.164Z,3.50
2022-11-14T15:23:45.359Z,3.40
2022-11-14T15:26:19.227Z,3.40
2022-11-14T15:28:46.586Z,3.40
2022-11-14T15:31:21.357Z,3.40
2022-11-14T15:34:06.376Z,3.50
2022-11-14T15:36:34.174Z,3.50
2022-11-14T15:39:21.831Z,3.50
2022-11-14T15:41:49.031Z,3.50
2022-11-14T15:44:33.496Z,3.50
2022-11-14T15:47:03.375Z,3.60
2022-11-14T15:49:30.897Z,3.60
2022-11-14T15:52:00.767Z,3.60
2022-11-14T15:54:29.574Z,3.70
2022-11-14T15:56:59.837Z,3.60
2022-11-14T15:59:29.655Z,3.70
2022-11-14T16:02:11.890Z,3.70
2022-11-14T16:04:44.376Z,3.60
2022-11-14T16:07:16.789Z,3.50
2022-11-14T16:09:44.823Z,3.50
2022-11-14T16:12:11.947Z,3.60
2022-11-14T16:14:41.495Z,3.60
2022-11-14T16:17:17.205Z,3.60
2022-11-14T16:19:44.576Z,3.50
2022-11-14T16:22:18.008Z,3.50
2022-11-14T16:24:44.924Z,3.60
2022-11-14T16:27:12.088Z,3.60
2022-11-14T16:29:39.160Z,3.70
2022-11-14T16:32:06.009Z,3.60
2022-11-14T16:34:33.494Z,3.60
2022-11-14T16:37:02.908Z,3.50
2022-11-14T16:39:30.797Z,3.60
2022-11-14T16:42:02.895Z,3.60
2022-11-14T16:44:30.294Z,3.50
2022-11-14T16:46:58.196Z,3.40
2022-11-14T16:49:25.859Z,3.40
2022-11-14T16:51:56.195Z,3.50
2022-11-14T16:54:23.170Z,3.40
2022-11-14T16:56:50.401Z,3.40
2022-11-14T16:59:17.572Z,3.40
2022-11-14T17:01:46.121Z,3.40
2022-11-14T17:04:13.145Z,3.40
2022-11-14T17:06:40.366Z,3.40
2022-11-14T17:09:07.328Z,3.40
2022-11-14T17:11:34.743Z,3.40
2022-11-14T17:14:01.891Z,3.40
2022-11-14T17:16:29.012Z,3.50
2022-11-14T17:18:56.549Z,3.50
2022-11-14T17:21:24.498Z,3.60
2022-11-14T17:23:57.784Z,3.50
2022-11-14T17:26:26.166Z,3.50
2022-11-14T17:28:53.609Z,3.60
2022-11-14T17:31:21.244Z,3.50
2022-11-14T17:33:56.827Z,3.50
2022-11-14T17:36:27.522Z,3.50
2022-11-14T17:38:56.389Z,3.40
2022-11-14T17:41:24.058Z,3.40
2022-11-14T17:43:56.936Z,3.40
2022-11-14T17:46:24.721Z,3.30
2022-11-14T17:48:52.204Z,3.30
2022-11-14T17:51:19.808Z,3.40
2022-11-14T17:53:47.413Z,3.40
2022-11-14T17:56:17.444Z,3.30
2022-11-14T17:58:46.219Z,3.40
2022-11-14T18:01:19.742Z,3.40
2022-11-14T18:03:47.262Z,3.40
2022-11-14T18:06:19.685Z,3.40
2022-11-14T18:08:47.212Z,3.30
2022-11-14T18:11:16.771Z,3.30
2022-11-14T18:13:45.369Z,3.20
2022-11-14T18:16:18.317Z,3.30
2022-11-14T18:18:46.113Z,3.30
2022-11-14T18:21:17.093Z,3.30
2022-11-14T18:23:44.872Z,3.30
2022-11-14T18:26:14.120Z,3.30
2022-11-14T18:28:42.777Z,3.30
2022-11-14T18:31:11.402Z,3.20
2022-11-14T18:33:40.758Z,3.20
2022-11-14T18:36:16.457Z,3.20
2022-11-14T18:38:47.445Z,3.20
2022-11-14T18:41:20.046Z,3.20
2022-11-14T18:43:47.383Z,3.20
2022-11-14T18:46:17.897Z,3.20
2022-11-14T18:48:47.613Z,3.30
2022-11-14T18:51:17.373Z,3.20
2022-11-14T18:53:44.934Z,3.20
2022-11-14T18:56:15.115Z,3.30
2022-11-14T18:58:44.419Z,3.30
2022-11-14T19:01:24.034Z,3.30
2022-11-14T19:04:12.124Z,3.30
2022-11-14T19:06:40.684Z,3.30
2022-11-14T19:09:16.179Z,3.30
2022-11-14T19:12:02.369Z,3.30
2022-11-14T19:14:29.958Z,3.20
2022-11-14T19:16:57.971Z,3.20
2022-11-14T19:19:25.753Z,3.10
2022-11-14T19:21:54.893Z,3.20
2022-11-14T19:24:22.244Z,3.20
2022-11-14T19:26:49.776Z,3.20
2022-11-14T19:29:17.167Z,3.30
2022-11-14T19:31:45.043Z,3.20
2022-11-14T19:34:13.009Z,3.20
2022-11-14T19:39:26.987Z,3.30
2022-11-14T19:41:54.110Z,3.30
2022-11-14T19:44:21.386Z,3.30
2022-11-14T19:46:48.767Z,3.30
2022-11-14T19:49:16.410Z,3.40
2022-11-14T19:51:43.920Z,3.30
2022-11-14T19:54:12.132Z,3.30
2022-11-14T19:56:39.752Z,3.30
2022-11-14T19:59:13.805Z,3.30
2022-11-14T20:01:42.617Z,3.40
2022-11-14T20:04:14.567Z,3.20
2022-11-14T20:06:43.618Z,3.30
2022-11-14T20:09:11.635Z,3.40
2022-11-14T20:11:39.370Z,3.30
2022-11-14T20:14:06.986Z,3.40
2022-11-14T20:16:36.872Z,3.30
2022-11-14T20:19:04.905Z,3.40
2022-11-14T20:21:34.008Z,3.40
2022-11-14T20:24:01.453Z,3.40
2022-11-14T20:26:28.680Z,3.40
2022-11-14T20:28:56.026Z,3.40
2022-11-14T20:31:26.889Z,3.50
2022-11-14T20:33:54.777Z,3.50
2022-11-14T20:36:24.749Z,3.50
2022-11-14T20:38:53.043Z,3.50
2022-11-14T20:41:21.017Z,3.50
2022-11-14T20:43:48.351Z,3.50
2022-11-14T20:46:18.569Z,3.60
2022-11-14T20:48:46.780Z,3.50
2022-11-14T20:51:15.494Z,3.40
2022-11-14T20:53:43.431Z,3.40
2022-11-14T20:56:11.771Z,3.40
2022-11-14T20:58:48.454Z,3.40
2022-11-14T21:01:16.764Z,3.40
2022-11-14T21:03:43.910Z,3.30
2022-11-14T21:06:13.823Z,3.30
2022-11-14T21:08:41.399Z,3.30
2022-11-14T21:11:12.568Z,3.30
2022-11-14T21:13:59.282Z,3.30
2022-11-14T21:16:32.464Z,3.30
2022-11-14T21:19:00.700Z,3.30
2022-11-14T21:21:30.350Z,3.30
2022-11-14T21:23:58.016Z,3.40
2022-11-14T21:26:27.859Z,3.40
2022-11-14T21:28:57.916Z,3.30
2022-11-14T21:31:36.799Z,3.40
2022-11-14T21:34:07.106Z,3.40
2022-11-14T21:36:49.158Z,3.40
2022-11-14T21:39:17.571Z,3.40
2022-11-14T21:41:48.570Z,3.40
2022-11-14T21:44:17.127Z,3.40
2022-11-14T21:46:47.387Z,3.40
2022-11-14T21:49:14.719Z,3.40
2022-11-14T21:51:42.244Z,3.30
2022-11-14T21:54:09.490Z,3.40
2022-11-14T21:56:37.310Z,3.40
2022-11-14T21:59:14.473Z,3.40
2022-11-14T22:02:05.553Z,3.40
2022-11-14T22:04:32.924Z,3.40
2022-11-14T22:07:02.337Z,3.40
2022-11-14T22:09:29.984Z,3.40
2022-11-14T22:11:58.192Z,3.40
2022-11-14T22:14:25.864Z,3.40
2022-11-14T22:16:53.128Z,3.40
2022-11-14T22:19:20.169Z,3.40
2022-11-14T22:21:47.392Z,3.40
2022-11-14T22:24:14.355Z,3.30
2022-11-14T22:26:41.521Z,3.40
2022-11-14T22:29:08.893Z,3.30
2022-11-14T22:31:37.072Z,3.30
2022-11-14T22:34:04.843Z,3.30
2022-11-14T22:36:32.182Z,3.30
2022-11-14T22:38:59.529Z,3.30
2022-11-14T22:41:32.316Z,3.30
2022-11-14T22:44:01.682Z,3.30
2022-11-14T22:46:30.166Z,3.30
2022-11-14T22:48:58.312Z,3.30
2022-11-14T22:51:28.800Z,3.20
2022-11-14T22:53:58.393Z,3.30
2022-11-14T22:56:28.568Z,3.30
2022-11-14T22:58:56.711Z,3.40
2022-11-14T23:01:26.465Z,3.40
2022-11-14T23:03:58.500Z,3.40
2022-11-14T23:06:26.483Z,3.40
2022-11-14T23:08:54.325Z,3.40
2022-11-14T23:11:26.846Z,3.40
2022-11-14T23:13:55.331Z,3.50
2022-11-14T23:16:27.786Z,3.50
2022-11-14T23:18:56.770Z,3.50
2022-11-14T23:21:29.345Z,3.50
2022-11-14T23:24:01.030Z,3.50
2022-11-14T23:26:30.104Z,3.50
2022-11-14T23:28:57.320Z,3.50
2022-11-14T23:31:25.697Z,3.40
2022-11-14T23:33:54.849Z,3.50
2022-11-14T23:36:22.111Z,3.50
2022-11-14T23:38:49.073Z,3.40
2022-11-14T23:41:22.320Z,3.50
2022-11-14T23:43:49.287Z,3.50
2022-11-14T23:46:16.146Z,3.50
2022-11-14T23:48:43.158Z,3.50
2022-11-14T23:51:10.707Z,3.40
2022-11-14T23:53:37.917Z,3.50
2022-11-14T23:56:05.219Z,3.50
2022-11-14T23:58:32.138Z,3.50
